createdAt,value
2022-10-29T00:03:27.224Z,98836.47
2022-10-29T00:08:30.813Z,98834.09
2022-10-29T00:13:32.647Z,98844.63
2022-10-29T00:18:34.548Z,98858.38
2022-10-29T00:23:36.460Z,98864.28
2022-10-29T00:28:38.614Z,98871.38
2022-10-29T00:33:40.754Z,98863.16
2022-10-29T00:38:43.484Z,98871.41
2022-10-29T00:44:12.659Z,98854.50
2022-10-29T00:49:16.806Z,98847.44
2022-10-29T00:54:19.359Z,98849.41
2022-10-29T00:59:21.325Z,98852.50
2022-10-29T01:04:24.866Z,98846.59
2022-10-29T01:09:26.658Z,98844.22
2022-10-29T01:14:49.934Z,98828.09
2022-10-29T01:20:25.646Z,98827.66
2022-10-29T01:25:42.536Z,98828.81
2022-10-29T01:31:00.287Z,98821.75
2022-10-29T01:36:07.829Z,98832.75
2022-10-29T01:41:41.616Z,98829.94
2022-10-29T01:46:49.930Z,98828.41
2022-10-29T01:51:54.179Z,98827.66
2022-10-29T01:56:57.251Z,98839.09
2022-10-29T02:02:16.142Z,98839.44
2022-10-29T02:08:05.562Z,98841.06
2022-10-29T02:13:11.394Z,98826.91
2022-10-29T02:18:13.279Z,98819.81
2022-10-29T02:23:16.691Z,98823.81
2022-10-29T02:33:21.366Z,98830.16
2022-10-29T02:38:23.139Z,98828.22
2022-10-29T02:43:24.935Z,98824.28
2022-10-29T02:48:26.721Z,98837.22
2022-10-29T02:53:28.509Z,98838.03
2022-10-29T02:58:30.372Z,98827.03
2022-10-29T03:03:32.206Z,98829.38
2022-10-29T03:08:33.980Z,98837.63
2022-10-29T03:18:42.658Z,98850.25
2022-10-29T03:23:44.510Z,98855.34
2022-10-29T03:33:53.000Z,98864.75
2022-10-29T03:38:54.816Z,98865.53
2022-10-29T03:43:56.746Z,98871.41
2022-10-29T03:48:58.613Z,98870.63
2022-10-29T03:54:00.453Z,98874.97
2022-10-29T03:59:02.352Z,98869.84
2022-10-29T04:04:04.240Z,98878.88
2022-10-29T04:09:06.079Z,98871.00
2022-10-29T04:14:08.191Z,98880.78
2022-10-29T04:19:10.051Z,98879.94
2022-10-29T04:29:33.701Z,98892.09
2022-10-29T04:34:35.481Z,98897.53
2022-10-29T04:39:37.275Z,98899.88
2022-10-29T04:44:39.123Z,98900.25
2022-10-29T04:49:40.924Z,98895.84
2022-10-29T04:54:42.716Z,98897.38
2022-10-29T04:59:44.520Z,98888.72
2022-10-29T05:04:46.310Z,98887.88
2022-10-29T05:09:48.105Z,98882.28
2022-10-29T05:14:49.938Z,98883.78
2022-10-29T05:19:51.789Z,98900.97
2022-10-29T05:24:53.573Z,98902.47
2022-10-29T05:29:55.384Z,98894.63
2022-10-29T05:34:57.391Z,98899.38
2022-10-29T05:39:59.217Z,98907.25
2022-10-29T05:45:01.004Z,98911.28
2022-10-29T05:50:02.812Z,98915.59
2022-10-29T05:55:05.617Z,98908.97
2022-10-29T06:00:08.340Z,98913.69
2022-10-29T06:05:13.869Z,98910.94
2022-10-29T06:10:15.741Z,98923.06
2022-10-29T06:15:18.632Z,98916.31
2022-10-29T06:20:21.746Z,98915.50
2022-10-29T06:25:24.223Z,98911.13
2022-10-29T06:30:26.089Z,98926.03
2022-10-29T06:35:28.969Z,98925.28
2022-10-29T06:40:30.799Z,98936.31
2022-10-29T06:45:33.575Z,98936.78
2022-10-29T06:50:35.614Z,98934.88
2022-10-29T06:55:37.444Z,98946.72
2022-10-29T07:00:40.104Z,98928.34
2022-10-29T07:05:42.051Z,98931.16
2022-10-29T07:10:43.938Z,98931.16
2022-10-29T07:15:45.805Z,98944.53
2022-10-29T07:20:47.599Z,98945.31
2022-10-29T07:25:52.487Z,98942.28
2022-10-29T07:31:01.097Z,98933.78
2022-10-29T07:36:03.001Z,98938.16
2022-10-29T07:41:04.945Z,98950.72
2022-10-29T07:46:07.299Z,98937.75
2022-10-29T07:51:09.136Z,98947.13
2022-10-29T07:56:11.008Z,98938.00
2022-10-29T08:01:12.940Z,98935.53
2022-10-29T08:06:14.784Z,98939.63
2022-10-29T08:11:16.591Z,98939.53
2022-10-29T08:16:18.515Z,98944.84
2022-10-29T08:21:20.605Z,98928.13
2022-10-29T08:31:24.154Z,98932.53
2022-10-29T08:36:25.937Z,98925.34
2022-10-29T08:41:38.739Z,98892.84
2022-10-29T08:46:54.077Z,98894.25
2022-10-29T08:52:03.227Z,98896.50
2022-10-29T08:57:15.118Z,98899.50
2022-10-29T09:02:18.425Z,98899.56
2022-10-29T09:07:36.359Z,98896.47
2022-10-29T09:13:00.331Z,98896.53
2022-10-29T09:18:31.564Z,98887.69
2022-10-29T09:24:05.214Z,98886.72
2022-10-29T09:29:49.018Z,98874.41
2022-10-29T09:34:55.296Z,98879.53
2022-10-29T09:39:58.533Z,98870.09
2022-10-29T09:45:04.145Z,98883.47
2022-10-29T09:50:19.708Z,98884.91
2022-10-29T09:55:31.611Z,98893.63
2022-10-29T10:00:34.547Z,98899.84
2022-10-29T10:05:55.833Z,98896.34
2022-10-29T10:11:01.385Z,98902.97
2022-10-29T10:16:06.197Z,98895.41
2022-10-29T10:21:09.981Z,98892.19
2022-10-29T10:26:42.983Z,98877.00
2022-10-29T10:31:47.023Z,98877.81
2022-10-29T10:37:06.105Z,98868.34
2022-10-29T10:42:22.860Z,98865.34
2022-10-29T10:47:32.123Z,98856.94
2022-10-29T10:52:35.253Z,98868.13
2022-10-29T10:57:46.208Z,98874.59
2022-10-29T11:02:52.041Z,98872.91
2022-10-29T11:08:10.796Z,98861.84
2022-10-29T11:13:22.923Z,98846.88
2022-10-29T11:18:30.968Z,98843.09
2022-10-29T11:23:39.815Z,98840.75
2022-10-29T11:28:53.190Z,98824.53
2022-10-29T11:34:14.168Z,98819.44
2022-10-29T11:39:27.166Z,98812.81
2022-10-29T11:44:34.578Z,98797.28
2022-10-29T11:49:51.520Z,98794.34
2022-10-29T11:55:08.523Z,98796.28
2022-10-29T12:00:19.199Z,98795.31
2022-10-29T12:05:42.868Z,98785.47
2022-10-29T12:11:03.375Z,98791.34
2022-10-29T12:16:28.531Z,98773.31
2022-10-29T12:22:03.791Z,98786.50
2022-10-29T12:27:29.580Z,98779.78
2022-10-29T12:32:50.650Z,98764.63
2022-10-29T12:38:13.321Z,98762.88
2022-10-29T12:43:26.120Z,98759.84
2022-10-29T12:48:39.574Z,98754.50
2022-10-29T12:54:18.818Z,98733.84
2022-10-29T12:59:24.194Z,98744.41
2022-10-29T13:04:30.932Z,98736.09
2022-10-29T13:09:36.787Z,98733.66
2022-10-29T13:14:40.898Z,98732.75
2022-10-29T13:19:55.319Z,98729.78
2022-10-29T13:25:34.827Z,98730.34
2022-10-29T13:30:39.758Z,98723.03
2022-10-29T13:35:42.041Z,98728.47
2022-10-29T13:41:17.340Z,98719.28
2022-10-29T13:46:47.200Z,98714.88
2022-10-29T13:51:54.261Z,98722.09
2022-10-29T13:57:04.843Z,98725.31
2022-10-29T14:02:32.270Z,98724.19
2022-10-29T14:07:57.121Z,98725.28
2022-10-29T14:13:17.968Z,98727.16
2022-10-29T14:18:27.059Z,98732.75
2022-10-29T14:23:30.734Z,98731.00
2022-10-29T14:28:33.769Z,98723.13
2022-10-29T14:33:37.590Z,98727.88
2022-10-29T14:38:52.303Z,98734.53
2022-10-29T14:44:02.452Z,98735.25
2022-10-29T14:49:14.249Z,98734.91
2022-10-29T14:54:21.790Z,98728.75
2022-10-29T14:59:29.160Z,98729.81
2022-10-29T15:04:32.522Z,98734.91
2022-10-29T15:09:34.372Z,98735.91
2022-10-29T15:14:54.520Z,98738.06
2022-10-29T15:20:02.883Z,98737.84
2022-10-29T15:25:08.819Z,98738.19
2022-10-29T15:30:21.678Z,98733.81
2022-10-29T15:35:24.242Z,98735.19
2022-10-29T15:40:26.958Z,98732.84
2022-10-29T15:45:28.836Z,98741.41
2022-10-29T15:50:39.802Z,98740.09
2022-10-29T15:55:41.903Z,98745.19
2022-10-29T16:00:44.305Z,98742.97
2022-10-29T16:05:49.499Z,98732.81
2022-10-29T16:10:52.397Z,98734.44
2022-10-29T16:15:54.489Z,98737.63
2022-10-29T16:21:01.879Z,98731.00
2022-10-29T16:26:04.111Z,98734.59
2022-10-29T16:31:18.595Z,98734.31
2022-10-29T16:36:20.729Z,98738.75
2022-10-29T16:41:22.558Z,98732.94
2022-10-29T16:46:24.363Z,98728.31
2022-10-29T16:51:26.234Z,98734.75
2022-10-29T16:56:28.090Z,98732.91
2022-10-29T17:01:30.125Z,98740.84
2022-10-29T17:06:32.108Z,98738.56
2022-10-29T17:11:33.971Z,98739.41
2022-10-29T17:21:42.744Z,98734.72
2022-10-29T17:26:44.786Z,98733.88
2022-10-29T17:31:46.873Z,98739.41
2022-10-29T17:36:49.727Z,98736.31
2022-10-29T17:41:52.117Z,98736.38
2022-10-29T17:46:54.896Z,98737.22
2022-10-29T17:51:56.724Z,98732.63
2022-10-29T17:56:58.898Z,98736.22
2022-10-29T18:02:01.136Z,98727.59
2022-10-29T18:07:03.755Z,98732.75
2022-10-29T18:12:05.844Z,98733.94
2022-10-29T18:17:07.990Z,98730.81
2022-10-29T18:22:09.930Z,98735.56
2022-10-29T18:27:11.728Z,98734.75
2022-10-29T18:32:13.693Z,98728.13
2022-10-29T18:37:15.792Z,98739.13
2022-10-29T18:42:17.989Z,98734.44
2022-10-29T18:47:20.417Z,98732.88
2022-10-29T18:52:22.737Z,98732.16
2022-10-29T18:57:24.813Z,98736.09
2022-10-29T19:02:27.013Z,98740.81
2022-10-29T19:07:29.234Z,98740.00
2022-10-29T19:12:32.291Z,98739.22
2022-10-29T19:17:34.813Z,98740.41
2022-10-29T19:22:37.063Z,98742.38
2022-10-29T19:27:39.028Z,98737.66
2022-10-29T19:32:41.340Z,98742.38
2022-10-29T19:37:44.047Z,98738.09
2022-10-29T19:42:48.858Z,98742.34
2022-10-29T19:47:51.913Z,98744.28
2022-10-29T19:52:54.412Z,98736.84
2022-10-29T19:57:57.148Z,98741.19
2022-10-29T20:02:59.645Z,98733.38
2022-10-29T20:08:02.029Z,98732.97
2022-10-29T20:13:04.677Z,98725.09
2022-10-29T20:18:06.484Z,98722.38
2022-10-29T20:23:08.415Z,98723.53
2022-10-29T20:28:11.316Z,98724.28
2022-10-29T20:33:13.643Z,98718.38
2022-10-29T20:38:15.432Z,98726.97
2022-10-29T20:43:17.391Z,98714.78
2022-10-29T20:48:19.296Z,98716.38
2022-10-29T20:53:21.112Z,98715.53
2022-10-29T20:58:23.053Z,98715.59
2022-10-29T21:03:24.849Z,98722.25
2022-10-29T21:13:36.227Z,98721.56
2022-10-29T21:18:42.102Z,98728.63
2022-10-29T21:23:44.304Z,98720.00
2022-10-29T21:28:47.046Z,98720.41
2022-10-29T21:33:53.293Z,98711.00
2022-10-29T21:38:55.163Z,98711.78
2022-10-29T21:43:57.032Z,98711.00
2022-10-29T21:48:58.875Z,98718.06
2022-10-29T21:54:00.739Z,98710.59
2022-10-29T21:59:02.583Z,98714.94
2022-10-29T22:04:04.521Z,98716.50
2022-10-29T22:09:06.365Z,98713.38
2022-10-29T22:14:08.202Z,98720.41
2022-10-29T22:19:10.082Z,98718.44
2022-10-29T22:24:12.037Z,98714.13
2022-10-29T22:29:13.837Z,98711.75
2022-10-29T22:34:15.721Z,98710.59
2022-10-29T22:39:17.833Z,98699.22
2022-10-29T22:44:19.991Z,98703.13
2022-10-29T22:49:21.787Z,98712.53
2022-10-29T22:54:23.568Z,98705.50
2022-10-29T22:59:25.365Z,98708.59
2022-10-29T23:04:27.254Z,98707.41
2022-10-29T23:09:29.082Z,98709.22
2022-10-29T23:14:30.884Z,98700.72
2022-10-29T23:19:32.878Z,98705.41
2022-10-29T23:24:34.661Z,98700.75
2022-10-29T23:29:36.442Z,98700.75
2022-10-29T23:34:38.219Z,98701.53
2022-10-29T23:39:40.000Z,98698.00
2022-10-29T23:44:41.821Z,98693.72
2022-10-29T23:49:43.600Z,98692.16
2022-10-29T23:54:45.398Z,98691.38
2022-10-29T23:59:47.214Z,98695.25
